sensor_id;sensor_type;location;lat;lon;timestamp;pressure;altitude;pressure_sealevel;temperature;humidity
38616;BME280;24370;51.986;4.666;2024-01-30T00:01:34;102607.72;;;17.66;45.21
38616;BME280;24370;51.986;4.666;2024-01-30T00:03:59;102606.50;;;17.90;44.30
38616;BME280;24370;51.986;4.666;2024-01-30T00:06:25;102609.63;;;17.51;45.82
38616;BME280;24370;51.986;4.666;2024-01-30T00:08:50;102594.88;;;18.06;44.57
38616;BME280;24370;51.986;4.666;2024-01-30T00:11:16;102602.78;;;17.32;46.75
38616;BME280;24370;51.986;4.666;2024-01-30T00:13:41;102604.50;;;17.36;46.42
38616;BME280;24370;51.986;4.666;2024-01-30T00:16:07;102604.66;;;17.20;46.80
38616;BME280;24370;51.986;4.666;2024-01-30T00:18:34;102599.66;;;17.76;45.43
38616;BME280;24370;51.986;4.666;2024-01-30T00:20:59;102594.09;;;17.98;44.97
38616;BME280;24370;51.986;4.666;2024-01-30T00:23:25;102593.22;;;17.99;44.60
38616;BME280;24370;51.986;4.666;2024-01-30T00:25:50;102598.97;;;17.57;45.72
38616;BME280;24370;51.986;4.666;2024-01-30T00:28:16;102595.75;;;18.08;44.35
38616;BME280;24370;51.986;4.666;2024-01-30T00:30:41;102601.25;;;17.93;44.80
38616;BME280;24370;51.986;4.666;2024-01-30T00:33:06;102598.31;;;18.13;44.50
38616;BME280;24370;51.986;4.666;2024-01-30T00:35:33;102593.41;;;17.79;45.16
38616;BME280;24370;51.986;4.666;2024-01-30T00:37:58;102574.22;;;16.71;47.06
38616;BME280;24370;51.986;4.666;2024-01-30T00:40:24;102563.41;;;17.85;45.35
38616;BME280;24370;51.986;4.666;2024-01-30T00:42:49;102571.34;;;17.85;45.76
38616;BME280;24370;51.986;4.666;2024-01-30T00:45:15;102575.50;;;17.28;46.71
38616;BME280;24370;51.986;4.666;2024-01-30T00:47:41;102568.16;;;17.55;45.85
38616;BME280;24370;51.986;4.666;2024-01-30T00:50:07;102573.78;;;17.27;46.96
38616;BME280;24370;51.986;4.666;2024-01-30T00:52:33;102570.47;;;17.03;46.30
38616;BME280;24370;51.986;4.666;2024-01-30T00:54:59;102574.16;;;17.68;45.58
38616;BME280;24370;51.986;4.666;2024-01-30T00:57:24;102580.75;;;18.07;45.01
38616;BME280;24370;51.986;4.666;2024-01-30T00:59:50;102597.81;;;18.47;43.92
38616;BME280;24370;51.986;4.666;2024-01-30T01:02:15;102595.28;;;18.39;43.89
38616;BME280;24370;51.986;4.666;2024-01-30T01:04:42;102598.97;;;18.29;43.63
38616;BME280;24370;51.986;4.666;2024-01-30T01:07:08;102586.69;;;18.25;43.76
38616;BME280;24370;51.986;4.666;2024-01-30T01:09:33;102590.72;;;18.49;43.54
38616;BME280;24370;51.986;4.666;2024-01-30T01:11:58;102586.91;;;18.69;42.87
38616;BME280;24370;51.986;4.666;2024-01-30T01:14:24;102585.50;;;18.44;43.05
38616;BME280;24370;51.986;4.666;2024-01-30T01:16:49;102575.53;;;18.62;42.69
38616;BME280;24370;51.986;4.666;2024-01-30T01:19:14;102574.28;;;18.27;43.27
38616;BME280;24370;51.986;4.666;2024-01-30T01:21:40;102574.78;;;17.90;44.17
38616;BME280;24370;51.986;4.666;2024-01-30T01:24:05;102569.44;;;17.96;43.78
38616;BME280;24370;51.986;4.666;2024-01-30T01:26:31;102560.44;;;18.09;43.83
38616;BME280;24370;51.986;4.666;2024-01-30T01:28:56;102566.16;;;18.39;43.00
38616;BME280;24370;51.986;4.666;2024-01-30T01:31:21;102568.59;;;17.92;43.71
38616;BME280;24370;51.986;4.666;2024-01-30T01:33:49;102565.50;;;18.25;43.42
38616;BME280;24370;51.986;4.666;2024-01-30T01:36:15;102562.16;;;18.13;43.63
38616;BME280;24370;51.986;4.666;2024-01-30T01:38:40;102544.75;;;18.56;42.80
38616;BME280;24370;51.986;4.666;2024-01-30T01:41:06;102565.41;;;18.31;43.38
38616;BME280;24370;51.986;4.666;2024-01-30T01:43:31;102564.50;;;18.32;43.44
38616;BME280;24370;51.986;4.666;2024-01-30T01:45:56;102561.19;;;18.75;42.35
38616;BME280;24370;51.986;4.666;2024-01-30T01:48:22;102546.47;;;18.01;43.34
38616;BME280;24370;51.986;4.666;2024-01-30T01:50:48;102552.16;;;17.67;44.19
38616;BME280;24370;51.986;4.666;2024-01-30T01:53:14;102561.22;;;18.14;43.42
38616;BME280;24370;51.986;4.666;2024-01-30T01:55:40;102575.34;;;18.17;43.67
38616;BME280;24370;51.986;4.666;2024-01-30T01:58:06;102586.28;;;18.51;43.55
38616;BME280;24370;51.986;4.666;2024-01-30T02:00:34;102573.66;;;18.69;42.61
38616;BME280;24370;51.986;4.666;2024-01-30T02:03:02;102567.41;;;18.17;43.49
38616;BME280;24370;51.986;4.666;2024-01-30T02:05:29;102561.44;;;18.60;42.69
38616;BME280;24370;51.986;4.666;2024-01-30T02:07:56;102563.31;;;18.52;43.03
38616;BME280;24370;51.986;4.666;2024-01-30T02:10:21;102553.09;;;18.30;43.52
38616;BME280;24370;51.986;4.666;2024-01-30T02:12:46;102547.34;;;18.58;42.75
38616;BME280;24370;51.986;4.666;2024-01-30T02:15:13;102548.94;;;18.68;43.03
38616;BME280;24370;51.986;4.666;2024-01-30T02:17:39;102539.47;;;18.53;43.50
38616;BME280;24370;51.986;4.666;2024-01-30T02:20:04;102539.41;;;18.58;43.08
38616;BME280;24370;51.986;4.666;2024-01-30T02:22:32;102531.22;;;17.49;44.95
38616;BME280;24370;51.986;4.666;2024-01-30T02:24:59;102539.41;;;18.00;44.32
38616;BME280;24370;51.986;4.666;2024-01-30T02:27:25;102535.47;;;18.29;43.85
38616;BME280;24370;51.986;4.666;2024-01-30T02:29:50;102540.41;;;18.51;43.15
38616;BME280;24370;51.986;4.666;2024-01-30T02:32:15;102543.59;;;18.17;43.79
38616;BME280;24370;51.986;4.666;2024-01-30T02:34:41;102543.75;;;18.62;43.12
38616;BME280;24370;51.986;4.666;2024-01-30T02:37:06;102548.72;;;18.80;42.63
38616;BME280;24370;51.986;4.666;2024-01-30T02:39:32;102547.34;;;18.58;43.02
38616;BME280;24370;51.986;4.666;2024-01-30T02:41:57;102547.00;;;18.79;42.86
38616;BME280;24370;51.986;4.666;2024-01-30T02:44:22;102539.59;;;18.47;43.67
38616;BME280;24370;51.986;4.666;2024-01-30T02:46:48;102538.72;;;18.46;43.76
38616;BME280;24370;51.986;4.666;2024-01-30T02:49:13;102536.38;;;18.26;43.76
38616;BME280;24370;51.986;4.666;2024-01-30T02:51:38;102540.63;;;18.35;43.39
38616;BME280;24370;51.986;4.666;2024-01-30T02:54:04;102532.94;;;18.20;44.25
38616;BME280;24370;51.986;4.666;2024-01-30T02:56:29;102534.09;;;18.59;43.25
38616;BME280;24370;51.986;4.666;2024-01-30T02:58:54;102520.66;;;18.70;43.22
38616;BME280;24370;51.986;4.666;2024-01-30T03:01:20;102521.25;;;17.69;45.14
38616;BME280;24370;51.986;4.666;2024-01-30T03:03:45;102522.53;;;18.07;44.49
38616;BME280;24370;51.986;4.666;2024-01-30T03:06:11;102510.88;;;18.21;44.25
38616;BME280;24370;51.986;4.666;2024-01-30T03:08:36;102510.97;;;18.14;44.70
38616;BME280;24370;51.986;4.666;2024-01-30T03:11:02;102503.03;;;18.14;44.46
38616;BME280;24370;51.986;4.666;2024-01-30T03:13:28;102496.09;;;18.06;45.25
38616;BME280;24370;51.986;4.666;2024-01-30T03:15:56;102498.22;;;17.80;46.05
38616;BME280;24370;51.986;4.666;2024-01-30T03:18:22;102512.53;;;18.28;44.45
38616;BME280;24370;51.986;4.666;2024-01-30T03:20:47;102507.91;;;18.42;44.48
38616;BME280;24370;51.986;4.666;2024-01-30T03:23:12;102509.19;;;18.17;44.48
38616;BME280;24370;51.986;4.666;2024-01-30T03:25:38;102508.97;;;18.30;44.29
38616;BME280;24370;51.986;4.666;2024-01-30T03:28:03;102503.59;;;18.35;44.75
38616;BME280;24370;51.986;4.666;2024-01-30T03:30:29;102508.16;;;18.78;43.85
38616;BME280;24370;51.986;4.666;2024-01-30T03:32:54;102505.47;;;18.27;44.30
38616;BME280;24370;51.986;4.666;2024-01-30T03:35:20;102509.44;;;17.98;44.91
38616;BME280;24370;51.986;4.666;2024-01-30T03:37:45;102507.28;;;18.25;44.39
38616;BME280;24370;51.986;4.666;2024-01-30T03:40:11;102511.47;;;17.77;45.59
38616;BME280;24370;51.986;4.666;2024-01-30T03:42:36;102521.53;;;18.18;44.42
38616;BME280;24370;51.986;4.666;2024-01-30T03:45:02;102507.59;;;18.03;44.95
38616;BME280;24370;51.986;4.666;2024-01-30T03:47:27;102513.53;;;18.21;44.21
38616;BME280;24370;51.986;4.666;2024-01-30T03:49:53;102506.56;;;18.15;44.86
38616;BME280;24370;51.986;4.666;2024-01-30T03:52:18;102508.25;;;18.21;44.82
38616;BME280;24370;51.986;4.666;2024-01-30T03:54:43;102509.53;;;17.92;45.51
38616;BME280;24370;51.986;4.666;2024-01-30T03:57:09;102509.50;;;18.51;44.27
38616;BME280;24370;51.986;4.666;2024-01-30T03:59:34;102496.78;;;18.73;43.58
38616;BME280;24370;51.986;4.666;2024-01-30T04:01:59;102500.06;;;17.74;46.28
38616;BME280;24370;51.986;4.666;2024-01-30T04:04:25;102498.59;;;18.70;43.82
38616;BME280;24370;51.986;4.666;2024-01-30T04:06:50;102505.81;;;18.60;44.08
38616;BME280;24370;51.986;4.666;2024-01-30T04:09:16;102497.69;;;18.16;45.18
38616;BME280;24370;51.986;4.666;2024-01-30T04:11:41;102480.56;;;18.40;44.22
38616;BME280;24370;51.986;4.666;2024-01-30T04:14:07;102489.19;;;18.52;44.87
38616;BME280;24370;51.986;4.666;2024-01-30T04:16:33;102491.53;;;18.70;44.37
38616;BME280;24370;51.986;4.666;2024-01-30T04:18:58;102498.00;;;17.97;45.95
38616;BME280;24370;51.986;4.666;2024-01-30T04:21:23;102496.44;;;17.81;46.63
38616;BME280;24370;51.986;4.666;2024-01-30T04:23:51;102494.13;;;18.19;45.65
38616;BME280;24370;51.986;4.666;2024-01-30T04:26:16;102485.91;;;18.37;45.03
38616;BME280;24370;51.986;4.666;2024-01-30T04:28:42;102490.44;;;18.80;44.05
38616;BME280;24370;51.986;4.666;2024-01-30T04:31:07;102484.09;;;18.39;44.76
38616;BME280;24370;51.986;4.666;2024-01-30T04:33:33;102481.09;;;19.09;43.53
38616;BME280;24370;51.986;4.666;2024-01-30T04:35:58;102485.78;;;18.43;44.61
38616;BME280;24370;51.986;4.666;2024-01-30T04:38:23;102481.69;;;18.78;44.15
38616;BME280;24370;51.986;4.666;2024-01-30T04:40:49;102475.47;;;18.79;43.70
38616;BME280;24370;51.986;4.666;2024-01-30T04:43:14;102487.84;;;18.79;43.57
38616;BME280;24370;51.986;4.666;2024-01-30T04:45:41;102476.91;;;18.47;44.99
38616;BME280;24370;51.986;4.666;2024-01-30T04:48:06;102466.09;;;19.10;43.44
38616;BME280;24370;51.986;4.666;2024-01-30T04:50:32;102467.28;;;18.95;43.49
38616;BME280;24370;51.986;4.666;2024-01-30T04:52:57;102469.03;;;18.96;43.66
38616;BME280;24370;51.986;4.666;2024-01-30T04:55:22;102476.28;;;18.33;44.98
38616;BME280;24370;51.986;4.666;2024-01-30T04:57:48;102470.03;;;18.87;44.02
38616;BME280;24370;51.986;4.666;2024-01-30T05:00:13;102466.50;;;18.38;44.83
38616;BME280;24370;51.986;4.666;2024-01-30T05:02:39;102466.69;;;18.26;45.04
38616;BME280;24370;51.986;4.666;2024-01-30T05:05:04;102475.53;;;18.25;45.76
38616;BME280;24370;51.986;4.666;2024-01-30T05:07:30;102478.63;;;17.27;47.68
38616;BME280;24370;51.986;4.666;2024-01-30T05:09:55;102479.66;;;17.84;46.63
38616;BME280;24370;51.986;4.666;2024-01-30T05:12:21;102476.34;;;17.66;47.22
38616;BME280;24370;51.986;4.666;2024-01-30T05:14:46;102468.66;;;17.49;47.63
38616;BME280;24370;51.986;4.666;2024-01-30T05:17:11;102467.59;;;16.89;49.15
38616;BME280;24370;51.986;4.666;2024-01-30T05:19:38;102470.88;;;17.11;48.45
38616;BME280;24370;51.986;4.666;2024-01-30T05:22:04;102462.25;;;17.67;47.35
38616;BME280;24370;51.986;4.666;2024-01-30T05:24:29;102468.88;;;17.99;46.95
38616;BME280;24370;51.986;4.666;2024-01-30T05:26:54;102466.41;;;17.17;48.29
38616;BME280;24370;51.986;4.666;2024-01-30T05:29:20;102465.41;;;17.94;47.18
38616;BME280;24370;51.986;4.666;2024-01-30T05:31:45;102467.78;;;17.49;48.07
38616;BME280;24370;51.986;4.666;2024-01-30T05:34:10;102475.16;;;17.22;49.21
38616;BME280;24370;51.986;4.666;2024-01-30T05:36:36;102471.06;;;17.66;47.75
38616;BME280;24370;51.986;4.666;2024-01-30T05:39:01;102475.31;;;17.09;49.16
38616;BME280;24370;51.986;4.666;2024-01-30T05:41:27;102474.47;;;17.74;47.69
38616;BME280;24370;51.986;4.666;2024-01-30T05:43:52;102473.06;;;18.14;47.10
38616;BME280;24370;51.986;4.666;2024-01-30T05:46:18;102468.78;;;18.05;46.30
38616;BME280;24370;51.986;4.666;2024-01-30T05:48:43;102473.56;;;18.36;46.29
38616;BME280;24370;51.986;4.666;2024-01-30T05:51:09;102477.75;;;17.95;46.76
38616;BME280;24370;51.986;4.666;2024-01-30T05:53:34;102475.09;;;17.95;46.74
38616;BME280;24370;51.986;4.666;2024-01-30T05:56:03;102481.28;;;17.94;47.50
38616;BME280;24370;51.986;4.666;2024-01-30T05:58:29;102483.13;;;17.89;46.93
38616;BME280;24370;51.986;4.666;2024-01-30T06:00:56;102490.22;;;17.84;47.78
38616;BME280;24370;51.986;4.666;2024-01-30T06:03:22;102491.31;;;17.69;48.18
38616;BME280;24370;51.986;4.666;2024-01-30T06:05:47;102488.00;;;18.17;47.03
38616;BME280;24370;51.986;4.666;2024-01-30T06:08:13;102491.88;;;17.91;48.13
38616;BME280;24370;51.986;4.666;2024-01-30T06:10:38;102492.47;;;18.13;47.33
38616;BME280;24370;51.986;4.666;2024-01-30T06:13:04;102487.78;;;17.67;48.20
38616;BME280;24370;51.986;4.666;2024-01-30T06:15:29;102499.47;;;18.17;47.68
38616;BME280;24370;51.986;4.666;2024-01-30T06:17:55;102496.34;;;17.89;47.85
38616;BME280;24370;51.986;4.666;2024-01-30T06:20:21;102486.44;;;18.03;47.58
38616;BME280;24370;51.986;4.666;2024-01-30T06:22:46;102487.44;;;17.96;47.23
38616;BME280;24370;51.986;4.666;2024-01-30T06:25:11;102482.78;;;18.12;47.22
38616;BME280;24370;51.986;4.666;2024-01-30T06:27:37;102498.13;;;17.87;47.75
38616;BME280;24370;51.986;4.666;2024-01-30T06:30:03;102496.66;;;18.28;46.91
38616;BME280;24370;51.986;4.666;2024-01-30T06:32:29;102490.69;;;17.48;48.88
38616;BME280;24370;51.986;4.666;2024-01-30T06:34:59;102489.59;;;18.27;47.38
38616;BME280;24370;51.986;4.666;2024-01-30T06:37:25;102498.06;;;18.51;46.71
38616;BME280;24370;51.986;4.666;2024-01-30T06:39:50;102501.38;;;18.62;46.85
38616;BME280;24370;51.986;4.666;2024-01-30T06:42:15;102494.53;;;17.21;49.57
38616;BME280;24370;51.986;4.666;2024-01-30T06:44:41;102491.72;;;18.03;47.88
38616;BME280;24370;51.986;4.666;2024-01-30T06:47:06;102503.34;;;17.20;49.09
38616;BME280;24370;51.986;4.666;2024-01-30T06:49:31;102489.16;;;18.00;48.77
38616;BME280;24370;51.986;4.666;2024-01-30T06:51:58;102498.53;;;17.54;48.93
38616;BME280;24370;51.986;4.666;2024-01-30T06:54:23;102493.19;;;18.23;47.66
38616;BME280;24370;51.986;4.666;2024-01-30T06:56:49;102491.34;;;17.67;48.25
38616;BME280;24370;51.986;4.666;2024-01-30T06:59:14;102503.34;;;17.94;48.18
38616;BME280;24370;51.986;4.666;2024-01-30T07:01:40;102502.13;;;17.52;48.77
38616;BME280;24370;51.986;4.666;2024-01-30T07:04:05;102499.16;;;17.76;48.96
38616;BME280;24370;51.986;4.666;2024-01-30T07:06:30;102496.50;;;18.87;46.79
38616;BME280;24370;51.986;4.666;2024-01-30T07:08:56;102507.09;;;18.37;47.25
38616;BME280;24370;51.986;4.666;2024-01-30T07:11:22;102507.88;;;18.44;47.12
38616;BME280;24370;51.986;4.666;2024-01-30T07:13:49;102514.91;;;18.43;47.71
38616;BME280;24370;51.986;4.666;2024-01-30T07:16:15;102511.63;;;18.80;46.61
38616;BME280;24370;51.986;4.666;2024-01-30T07:18:41;102507.84;;;18.97;46.25
38616;BME280;24370;51.986;4.666;2024-01-30T07:21:06;102519.78;;;18.70;47.45
38616;BME280;24370;51.986;4.666;2024-01-30T07:23:31;102516.47;;;19.08;46.03
38616;BME280;24370;51.986;4.666;2024-01-30T07:25:59;102517.63;;;18.40;47.97
38616;BME280;24370;51.986;4.666;2024-01-30T07:28:24;102518.00;;;18.16;48.56
38616;BME280;24370;51.986;4.666;2024-01-30T07:30:50;102520.31;;;17.76;49.75
38616;BME280;24370;51.986;4.666;2024-01-30T07:33:15;102531.34;;;18.64;48.42
38616;BME280;24370;51.986;4.666;2024-01-30T07:35:41;102525.19;;;18.63;47.71
38616;BME280;24370;51.986;4.666;2024-01-30T07:38:06;102531.19;;;18.73;48.30
38616;BME280;24370;51.986;4.666;2024-01-30T07:40:32;102542.25;;;18.98;47.00
38616;BME280;24370;51.986;4.666;2024-01-30T07:42:58;102530.44;;;19.60;45.80
38616;BME280;24370;51.986;4.666;2024-01-30T07:45:24;102529.97;;;19.41;46.08
38616;BME280;24370;51.986;4.666;2024-01-30T07:47:51;102528.47;;;19.28;46.22
38616;BME280;24370;51.986;4.666;2024-01-30T07:50:17;102531.53;;;19.52;45.63
38616;BME280;24370;51.986;4.666;2024-01-30T07:52:43;102549.25;;;18.50;48.35
38616;BME280;24370;51.986;4.666;2024-01-30T07:55:08;102537.44;;;19.21;47.27
38616;BME280;24370;51.986;4.666;2024-01-30T07:57:34;102549.97;;;19.12;47.08
38616;BME280;24370;51.986;4.666;2024-01-30T08:00:00;102540.56;;;18.94;47.50
38616;BME280;24370;51.986;4.666;2024-01-30T08:02:26;102552.38;;;18.73;48.54
38616;BME280;24370;51.986;4.666;2024-01-30T08:04:51;102547.06;;;19.26;47.40
38616;BME280;24370;51.986;4.666;2024-01-30T08:07:17;102551.41;;;18.26;49.68
38616;BME280;24370;51.986;4.666;2024-01-30T08:09:43;102557.41;;;18.36;50.32
38616;BME280;24370;51.986;4.666;2024-01-30T08:12:08;102551.31;;;18.85;49.04
38616;BME280;24370;51.986;4.666;2024-01-30T08:14:34;102548.63;;;19.35;47.30
38616;BME280;24370;51.986;4.666;2024-01-30T08:16:59;102558.75;;;18.63;49.29
38616;BME280;24370;51.986;4.666;2024-01-30T08:19:25;102562.59;;;18.42;50.00
38616;BME280;24370;51.986;4.666;2024-01-30T08:21:50;102573.19;;;18.98;48.55
38616;BME280;24370;51.986;4.666;2024-01-30T08:24:15;102563.94;;;18.69;48.74
38616;BME280;24370;51.986;4.666;2024-01-30T08:26:41;102571.84;;;19.24;47.43
38616;BME280;24370;51.986;4.666;2024-01-30T08:29:06;102566.72;;;19.60;47.07
38616;BME280;24370;51.986;4.666;2024-01-30T08:31:32;102568.72;;;19.48;47.28
38616;BME280;24370;51.986;4.666;2024-01-30T08:33:57;102568.28;;;18.73;49.06
38616;BME280;24370;51.986;4.666;2024-01-30T08:36:23;102575.09;;;18.90;49.05
38616;BME280;24370;51.986;4.666;2024-01-30T08:38:48;102574.88;;;19.02;48.50
38616;BME280;24370;51.986;4.666;2024-01-30T08:41:14;102573.84;;;19.58;47.00
38616;BME280;24370;51.986;4.666;2024-01-30T08:43:39;102572.88;;;18.62;48.79
38616;BME280;24370;51.986;4.666;2024-01-30T08:46:05;102577.94;;;18.20;50.76
38616;BME280;24370;51.986;4.666;2024-01-30T08:48:30;102572.34;;;18.96;48.90
38616;BME280;24370;51.986;4.666;2024-01-30T08:50:55;102577.78;;;18.88;49.06
38616;BME280;24370;51.986;4.666;2024-01-30T08:53:21;102573.28;;;19.86;47.13
38616;BME280;24370;51.986;4.666;2024-01-30T08:55:47;102591.56;;;18.53;50.08
38616;BME280;24370;51.986;4.666;2024-01-30T08:58:12;102572.63;;;18.20;51.03
38616;BME280;24370;51.986;4.666;2024-01-30T09:00:38;102573.75;;;18.62;50.16
38616;BME280;24370;51.986;4.666;2024-01-30T09:03:03;102581.63;;;18.08;51.38
38616;BME280;24370;51.986;4.666;2024-01-30T09:05:29;102578.59;;;19.40;47.81
38616;BME280;24370;51.986;4.666;2024-01-30T09:07:55;102583.91;;;18.92;48.94
38616;BME280;24370;51.986;4.666;2024-01-30T09:10:20;102581.22;;;18.37;49.73
38616;BME280;24370;51.986;4.666;2024-01-30T09:12:46;102576.44;;;18.59;50.07
38616;BME280;24370;51.986;4.666;2024-01-30T09:15:12;102587.09;;;17.91;51.20
38616;BME280;24370;51.986;4.666;2024-01-30T09:17:37;102588.78;;;19.62;47.50
38616;BME280;24370;51.986;4.666;2024-01-30T09:20:03;102593.56;;;18.35;49.05
38616;BME280;24370;51.986;4.666;2024-01-30T09:22:31;102599.34;;;18.63;49.55
38616;BME280;24370;51.986;4.666;2024-01-30T09:24:57;102602.41;;;19.43;47.48
38616;BME280;24370;51.986;4.666;2024-01-30T09:27:23;102595.91;;;19.11;48.11
38616;BME280;24370;51.986;4.666;2024-01-30T09:29:48;102603.72;;;19.19;48.12
38616;BME280;24370;51.986;4.666;2024-01-30T09:32:13;102606.97;;;18.84;48.93
38616;BME280;24370;51.986;4.666;2024-01-30T09:34:39;102608.19;;;18.00;50.99
38616;BME280;24370;51.986;4.666;2024-01-30T09:37:05;102613.03;;;18.93;49.00
38616;BME280;24370;51.986;4.666;2024-01-30T09:39:30;102616.56;;;18.92;48.58
38616;BME280;24370;51.986;4.666;2024-01-30T09:42:02;102621.31;;;19.23;48.49
38616;BME280;24370;51.986;4.666;2024-01-30T09:44:34;102623.91;;;18.12;49.67
38616;BME280;24370;51.986;4.666;2024-01-30T09:47:01;102621.31;;;18.70;50.44
38616;BME280;24370;51.986;4.666;2024-01-30T09:49:32;102623.03;;;19.74;47.47
38616;BME280;24370;51.986;4.666;2024-01-30T09:51:58;102628.91;;;18.93;48.74
38616;BME280;24370;51.986;4.666;2024-01-30T09:54:23;102637.38;;;18.58;49.80
38616;BME280;24370;51.986;4.666;2024-01-30T09:56:49;102651.97;;;18.26;50.25
38616;BME280;24370;51.986;4.666;2024-01-30T09:59:15;102643.41;;;18.68;48.92
38616;BME280;24370;51.986;4.666;2024-01-30T10:01:40;102633.56;;;19.30;47.53
38616;BME280;24370;51.986;4.666;2024-01-30T10:04:07;102637.97;;;18.77;48.29
38616;BME280;24370;51.986;4.666;2024-01-30T10:06:33;102655.00;;;17.95;48.94
38616;BME280;24370;51.986;4.666;2024-01-30T10:08:59;102647.09;;;17.89;48.83
38616;BME280;24370;51.986;4.666;2024-01-30T10:11:24;102646.75;;;18.20;48.38
38616;BME280;24370;51.986;4.666;2024-01-30T10:13:50;102636.25;;;18.10;49.05
38616;BME280;24370;51.986;4.666;2024-01-30T10:16:15;102646.84;;;18.13;48.73
38616;BME280;24370;51.986;4.666;2024-01-30T10:18:42;102644.44;;;17.87;48.63
38616;BME280;24370;51.986;4.666;2024-01-30T10:21:08;102642.75;;;18.55;48.11
38616;BME280;24370;51.986;4.666;2024-01-30T10:23:34;102648.41;;;18.27;48.30
38616;BME280;24370;51.986;4.666;2024-01-30T10:25:59;102642.81;;;18.48;47.65
38616;BME280;24370;51.986;4.666;2024-01-30T10:28:27;102654.97;;;18.62;46.89
38616;BME280;24370;51.986;4.666;2024-01-30T10:31:01;102655.69;;;17.27;49.82
38616;BME280;24370;51.986;4.666;2024-01-30T10:33:32;102675.94;;;17.25;49.52
38616;BME280;24370;51.986;4.666;2024-01-30T10:36:01;102675.91;;;17.31;49.99
38616;BME280;24370;51.986;4.666;2024-01-30T10:38:31;102679.47;;;17.27;49.29
38616;BME280;24370;51.986;4.666;2024-01-30T10:41:00;102677.34;;;17.63;48.46
38616;BME280;24370;51.986;4.666;2024-01-30T10:43:33;102684.03;;;17.08;49.51
38616;BME280;24370;51.986;4.666;2024-01-30T10:46:20;102686.47;;;17.31;48.59
38616;BME280;24370;51.986;4.666;2024-01-30T10:48:59;102675.41;;;16.76;49.33
38616;BME280;24370;51.986;4.666;2024-01-30T10:51:26;102672.88;;;17.71;46.88
38616;BME280;24370;51.986;4.666;2024-01-30T10:53:52;102674.31;;;18.02;46.74
38616;BME280;24370;51.986;4.666;2024-01-30T10:56:20;102687.31;;;17.33;47.05
38616;BME280;24370;51.986;4.666;2024-01-30T10:58:48;102681.38;;;17.09;47.48
38616;BME280;24370;51.986;4.666;2024-01-30T11:01:14;102695.50;;;17.05;47.57
38616;BME280;24370;51.986;4.666;2024-01-30T11:03:41;102677.41;;;16.33;49.51
38616;BME280;24370;51.986;4.666;2024-01-30T11:06:11;102693.41;;;15.92;50.60
38616;BME280;24370;51.986;4.666;2024-01-30T11:08:37;102686.97;;;16.54;49.50
38616;BME280;24370;51.986;4.666;2024-01-30T11:11:08;102687.16;;;16.20;50.18
38616;BME280;24370;51.986;4.666;2024-01-30T11:13:34;102702.94;;;16.26;51.22
38616;BME280;24370;51.986;4.666;2024-01-30T11:16:04;102700.28;;;16.31;51.19
38616;BME280;24370;51.986;4.666;2024-01-30T11:18:31;102706.63;;;15.57;53.22
38616;BME280;24370;51.986;4.666;2024-01-30T11:20:58;102710.13;;;15.68;53.33
38616;BME280;24370;51.986;4.666;2024-01-30T11:23:25;102711.59;;;16.59;51.41
38616;BME280;24370;51.986;4.666;2024-01-30T11:25:56;102709.22;;;15.88;53.45
38616;BME280;24370;51.986;4.666;2024-01-30T11:28:24;102710.09;;;16.02;51.67
38616;BME280;24370;51.986;4.666;2024-01-30T11:30:50;102710.00;;;16.21;51.46
38616;BME280;24370;51.986;4.666;2024-01-30T11:33:30;102725.94;;;15.99;51.82
38616;BME280;24370;51.986;4.666;2024-01-30T11:35:58;102725.94;;;15.84;51.55
38616;BME280;24370;51.986;4.666;2024-01-30T11:38:26;102729.47;;;15.42;52.11
38616;BME280;24370;51.986;4.666;2024-01-30T11:40:51;102733.00;;;15.44;52.07
38616;BME280;24370;51.986;4.666;2024-01-30T11:43:18;102721.53;;;15.87;50.49
38616;BME280;24370;51.986;4.666;2024-01-30T11:45:44;102718.91;;;15.70;51.39
38616;BME280;24370;51.986;4.666;2024-01-30T11:48:12;102724.19;;;15.80;51.02
38616;BME280;24370;51.986;4.666;2024-01-30T11:50:38;102722.41;;;15.63;50.69
38616;BME280;24370;51.986;4.666;2024-01-30T11:53:04;102710.00;;;16.27;48.92
38616;BME280;24370;51.986;4.666;2024-01-30T11:55:30;102699.31;;;16.55;48.68
38616;BME280;24370;51.986;4.666;2024-01-30T11:57:59;102716.28;;;15.80;50.17
38616;BME280;24370;51.986;4.666;2024-01-30T12:00:25;102725.94;;;15.90;49.84
38616;BME280;24370;51.986;4.666;2024-01-30T12:02:52;102709.84;;;16.55;48.68
38616;BME280;24370;51.986;4.666;2024-01-30T12:05:21;102724.09;;;16.17;48.90
38616;BME280;24370;51.986;4.666;2024-01-30T12:07:46;102721.56;;;15.83;49.72
38616;BME280;24370;51.986;4.666;2024-01-30T12:10:13;102711.44;;;16.93;47.94
38616;BME280;24370;51.986;4.666;2024-01-30T12:12:39;102728.53;;;15.96;49.83
38616;BME280;24370;51.986;4.666;2024-01-30T12:15:07;102726.81;;;15.80;50.24
38616;BME280;24370;51.986;4.666;2024-01-30T12:17:33;102736.44;;;16.11;50.03
38616;BME280;24370;51.986;4.666;2024-01-30T12:20:13;102739.88;;;16.32;50.01
38616;BME280;24370;51.986;4.666;2024-01-30T12:22:45;102722.84;;;16.98;48.62
38616;BME280;24370;51.986;4.666;2024-01-30T12:25:12;102740.78;;;16.25;50.63
38616;BME280;24370;51.986;4.666;2024-01-30T12:27:39;102748.81;;;15.41;52.17
38616;BME280;24370;51.986;4.666;2024-01-30T12:30:08;102745.16;;;16.29;50.48
38616;BME280;24370;51.986;4.666;2024-01-30T12:32:35;102746.13;;;16.00;51.43
38616;BME280;24370;51.986;4.666;2024-01-30T12:35:01;102745.09;;;16.48;50.30
38616;BME280;24370;51.986;4.666;2024-01-30T12:37:27;102754.00;;;16.16;51.62
38616;BME280;24370;51.986;4.666;2024-01-30T12:39:54;102752.22;;;16.24;51.61
38616;BME280;24370;51.986;4.666;2024-01-30T12:42:20;102749.59;;;16.16;52.02
38616;BME280;24370;51.986;4.666;2024-01-30T12:44:49;102756.69;;;15.74;52.43